createdAt,value
2023-04-01T00:01:37.883Z,1.45
2023-04-01T00:04:50.733Z,1.60
2023-04-01T00:08:02.836Z,1.40
2023-04-01T00:11:16.006Z,1.08
2023-04-01T00:14:28.192Z,1.40
2023-04-01T00:17:40.842Z,1.38
2023-04-01T00:20:56.150Z,1.20
2023-04-01T00:24:08.826Z,1.40
2023-04-01T00:27:21.504Z,1.48
2023-04-01T00:30:33.768Z,1.70
2023-04-01T00:33:46.985Z,1.48
2023-04-01T00:36:59.718Z,1.23
2023-04-01T00:40:16.974Z,1.38
2023-04-01T00:43:29.540Z,1.60
2023-04-01T00:46:41.872Z,1.40
2023-04-01T00:49:57.334Z,1.65
2023-04-01T00:53:10.680Z,1.23
2023-04-01T00:56:28.033Z,1.30
2023-04-01T00:59:45.018Z,1.18
2023-04-01T01:02:59.928Z,1.23
2023-04-01T01:06:24.873Z,1.78
2023-04-01T01:09:46.849Z,1.55
2023-04-01T01:13:04.658Z,1.63
2023-04-01T01:16:21.314Z,1.60
2023-04-01T01:20:25.843Z,1.63
2023-04-01T01:24:24.568Z,1.78
2023-04-01T01:27:39.556Z,1.65
2023-04-01T01:30:59.050Z,1.60
2023-04-01T01:34:22.980Z,1.63
2023-04-01T01:37:37.695Z,1.50
2023-04-01T01:40:55.466Z,1.60
2023-04-01T01:44:12.267Z,1.30
2023-04-01T01:47:27.002Z,1.35
2023-04-01T01:50:40.658Z,1.60
2023-04-01T01:53:53.535Z,1.18
2023-04-01T01:57:11.540Z,1.60
2023-04-01T02:00:28.060Z,1.30
2023-04-01T02:03:44.533Z,1.43
2023-04-01T02:07:03.852Z,1.95
2023-04-01T02:10:18.125Z,1.60
2023-04-01T02:13:37.029Z,1.70
2023-04-01T02:16:55.174Z,1.63
2023-04-01T02:20:12.078Z,1.55
2023-04-01T02:23:25.118Z,1.70
2023-04-01T02:26:37.831Z,1.60
2023-04-01T02:29:50.750Z,2.30
2023-04-01T02:33:05.662Z,1.70
2023-04-01T02:36:22.440Z,1.95
2023-04-01T02:39:34.974Z,1.73
2023-04-01T02:42:47.482Z,1.53
2023-04-01T02:45:59.691Z,1.60
2023-04-01T02:49:12.295Z,1.80
2023-04-01T02:52:25.313Z,1.90
2023-04-01T02:55:38.339Z,1.60
2023-04-01T02:58:50.718Z,1.65
2023-04-01T03:02:03.122Z,1.95
2023-04-01T03:05:16.949Z,1.55
2023-04-01T03:08:29.542Z,1.58
2023-04-01T03:11:42.140Z,1.70
2023-04-01T03:14:54.605Z,1.48
2023-04-01T03:18:06.913Z,1.93
2023-04-01T03:21:25.045Z,1.53
2023-04-01T03:24:37.414Z,1.68
2023-04-01T03:27:49.634Z,1.35
2023-04-01T03:31:02.116Z,1.78
2023-04-01T03:34:16.659Z,1.98
2023-04-01T03:37:30.156Z,1.45
2023-04-01T03:40:43.238Z,1.90
2023-04-01T03:43:55.575Z,1.90
2023-04-01T03:47:10.440Z,1.70
2023-04-01T03:50:23.054Z,1.68
2023-04-01T03:53:35.667Z,1.68
2023-04-01T03:56:48.341Z,1.60
2023-04-01T04:00:01.127Z,1.60
2023-04-01T04:03:16.362Z,1.80
2023-04-01T04:06:29.446Z,1.98
2023-04-01T04:09:41.834Z,1.63
2023-04-01T04:12:54.104Z,1.98
2023-04-01T04:16:07.779Z,2.48
2023-04-01T04:19:20.910Z,1.88
2023-04-01T04:22:33.324Z,1.50
2023-04-01T04:25:45.931Z,1.68
2023-04-01T04:28:58.758Z,1.75
2023-04-01T04:32:11.368Z,1.85
2023-04-01T04:35:23.787Z,2.13
2023-04-01T04:38:36.597Z,1.93
2023-04-01T04:41:49.590Z,1.80
2023-04-01T04:45:01.769Z,1.95
2023-04-01T04:48:20.024Z,2.43
2023-04-01T04:51:35.045Z,2.10
2023-04-01T04:54:47.573Z,2.00
2023-04-01T04:57:59.898Z,2.10
2023-04-01T05:01:18.845Z,1.68
2023-04-01T05:04:31.217Z,2.13
2023-04-01T05:07:43.661Z,2.10
2023-04-01T05:10:56.798Z,2.20
2023-04-01T05:14:09.009Z,1.98
2023-04-01T05:17:22.227Z,2.05
2023-04-01T05:20:34.464Z,2.10
2023-04-01T05:23:48.064Z,2.25
2023-04-01T05:27:00.823Z,2.33
2023-04-01T05:30:17.544Z,1.83
2023-04-01T05:33:32.181Z,2.28
2023-04-01T05:36:45.194Z,1.80
2023-04-01T05:39:57.539Z,1.70
2023-04-01T05:43:10.093Z,1.73
2023-04-01T05:46:22.864Z,1.43
2023-04-01T05:49:38.249Z,1.60
2023-04-01T05:52:51.358Z,1.90
2023-04-01T05:56:05.827Z,1.95
2023-04-01T05:59:20.516Z,2.13
2023-04-01T06:02:32.926Z,1.60
2023-04-01T06:05:50.418Z,2.10
2023-04-01T06:09:09.001Z,1.93
2023-04-01T06:12:44.334Z,2.13
2023-04-01T06:16:03.176Z,1.90
2023-04-01T06:19:34.765Z,1.60
2023-04-01T06:23:17.566Z,1.53
2023-04-01T06:26:38.724Z,1.95
2023-04-01T06:30:12.329Z,1.60
2023-04-01T06:33:45.593Z,2.00
2023-04-01T06:37:12.352Z,2.05
2023-04-01T06:40:51.692Z,2.10
2023-04-01T06:44:13.115Z,1.70
2023-04-01T06:47:44.988Z,2.60
2023-04-01T06:51:04.232Z,2.13
2023-04-01T06:54:40.424Z,1.90
2023-04-01T06:58:00.919Z,1.63
2023-04-01T07:01:18.686Z,1.85
2023-04-01T07:04:36.445Z,2.20
2023-04-01T07:07:54.400Z,2.18
2023-04-01T07:11:10.424Z,2.20
2023-04-01T07:14:45.408Z,2.40
2023-04-01T07:18:02.906Z,2.33
2023-04-01T07:21:26.268Z,2.43
2023-04-01T07:24:45.088Z,2.50
2023-04-01T07:28:00.162Z,2.18
2023-04-01T07:31:24.249Z,3.15
2023-04-01T07:34:40.996Z,3.00
2023-04-01T07:38:10.863Z,2.78
2023-04-01T07:41:29.332Z,2.10
2023-04-01T07:44:48.341Z,2.20
2023-04-01T07:48:14.120Z,2.68
2023-04-01T07:51:32.862Z,1.68
2023-04-01T07:54:51.861Z,2.00
2023-04-01T07:58:12.017Z,3.50
2023-04-01T08:01:33.701Z,1.80
2023-04-01T08:05:03.747Z,1.80
2023-04-01T08:08:22.469Z,1.78
2023-04-01T08:12:05.675Z,1.53
2023-04-01T08:15:41.207Z,2.38
2023-04-01T08:19:03.091Z,1.78
2023-04-01T08:22:21.308Z,1.90
2023-04-01T08:25:36.347Z,1.75
2023-04-01T08:28:54.930Z,1.68
2023-04-01T08:32:14.824Z,1.80
2023-04-01T08:35:38.358Z,1.70
2023-04-01T08:38:54.863Z,1.50
2023-04-01T08:42:49.886Z,1.70
2023-04-01T08:46:26.684Z,1.60
2023-04-01T08:50:07.433Z,2.20
2023-04-01T08:53:28.385Z,1.88
2023-04-01T08:56:45.646Z,1.58
2023-04-01T09:00:09.647Z,1.43
2023-04-01T09:04:10.683Z,2.00
2023-04-01T09:07:37.785Z,1.88
2023-04-01T09:11:14.543Z,1.35
2023-04-01T09:15:09.962Z,1.53
2023-04-01T09:18:49.083Z,1.43
2023-04-01T09:22:37.250Z,1.40
2023-04-01T09:26:02.273Z,1.83
2023-04-01T09:29:26.007Z,1.93
2023-04-01T09:33:06.680Z,1.78
2023-04-01T09:36:34.383Z,3.40
2023-04-01T09:39:52.950Z,5.53
2023-04-01T09:43:32.975Z,2.10
2023-04-01T09:46:59.152Z,1.50
2023-04-01T09:50:40.824Z,1.70
2023-04-01T09:54:07.530Z,1.50
2023-04-01T09:58:08.345Z,1.78
2023-04-01T10:02:00.253Z,2.10
2023-04-01T10:05:51.138Z,2.65
2023-04-01T10:09:52.674Z,2.60
2023-04-01T10:13:53.720Z,1.83
2023-04-01T10:17:50.676Z,2.10
2023-04-01T10:21:35.934Z,2.03
2023-04-01T10:25:32.053Z,2.15
2023-04-01T10:29:32.912Z,2.28
2023-04-01T10:33:34.875Z,2.30
2023-04-01T10:37:01.337Z,2.30
2023-04-01T10:40:43.214Z,2.78
2023-04-01T10:45:29.608Z,2.38
2023-04-01T10:49:24.520Z,2.65
2023-04-01T10:53:23.141Z,2.08
2023-04-01T10:56:55.174Z,2.50
2023-04-01T11:00:49.661Z,2.28
2023-04-01T11:05:29.159Z,2.55
2023-04-01T11:09:40.170Z,1.80
2023-04-01T11:17:19.051Z,1.70
2023-04-01T11:21:35.862Z,2.13
2023-04-01T11:25:23.534Z,2.30
2023-04-01T11:29:12.228Z,2.50
2023-04-01T11:32:43.526Z,2.15
2023-04-01T11:36:36.504Z,2.60
2023-04-01T11:39:57.771Z,2.30
2023-04-01T11:43:32.281Z,2.35
2023-04-01T11:47:12.758Z,2.48
2023-04-01T11:50:34.133Z,1.75
2023-04-01T11:53:55.660Z,1.78
2023-04-01T11:57:26.199Z,1.98
2023-04-01T12:01:18.075Z,2.05
2023-04-01T12:05:05.523Z,2.20
2023-04-01T12:08:30.583Z,2.40
2023-04-01T12:11:50.022Z,2.40
2023-04-01T12:15:16.246Z,2.20
2023-04-01T12:18:34.346Z,2.23
2023-04-01T12:21:51.131Z,2.00
2023-04-01T12:25:16.923Z,1.93
2023-04-01T12:28:38.454Z,1.50
2023-04-01T12:32:00.532Z,1.63
2023-04-01T12:35:30.025Z,2.03
2023-04-01T12:38:49.166Z,1.68
2023-04-01T12:42:10.439Z,4.25
2023-04-01T12:45:45.530Z,2.18
2023-04-01T12:49:23.329Z,2.25
2023-04-01T12:52:46.961Z,2.10
2023-04-01T12:56:01.725Z,2.10
2023-04-01T12:59:46.234Z,2.20
2023-04-01T13:03:12.203Z,1.90
2023-04-01T13:07:03.891Z,1.50
2023-04-01T13:10:29.307Z,1.50
2023-04-01T13:14:31.696Z,1.50
2023-04-01T13:17:49.103Z,1.70
2023-04-01T13:21:11.669Z,1.93
2023-04-01T13:24:40.777Z,2.40
2023-04-01T13:27:56.486Z,2.65
2023-04-01T13:31:14.321Z,1.73
2023-04-01T13:34:38.137Z,1.80
2023-04-01T13:38:00.139Z,1.80
2023-04-01T13:41:19.023Z,2.00
2023-04-01T13:44:36.578Z,1.80
2023-04-01T13:48:27.015Z,1.75
2023-04-01T13:52:16.541Z,1.73
2023-04-01T13:56:00.560Z,1.20
2023-04-01T13:59:38.080Z,1.35
2023-04-01T14:03:16.498Z,1.40
2023-04-01T14:06:39.347Z,1.15
2023-04-01T14:10:27.779Z,0.95
2023-04-01T14:13:46.565Z,1.10
2023-04-01T14:17:39.332Z,1.98
2023-04-01T14:20:55.768Z,1.33
2023-04-01T14:24:54.528Z,1.23
2023-04-01T14:31:42.801Z,2.48
2023-04-01T14:35:17.220Z,1.75
2023-04-01T14:38:51.804Z,2.18
2023-04-01T14:42:21.563Z,2.08
2023-04-01T14:46:03.523Z,2.45
2023-04-01T14:49:25.908Z,2.38
2023-04-01T14:52:43.869Z,2.30
2023-04-01T14:56:00.585Z,2.70
2023-04-01T14:59:26.380Z,2.63
2023-04-01T15:03:01.872Z,2.83
2023-04-01T15:06:55.069Z,2.48
2023-04-01T15:10:17.102Z,2.90
2023-04-01T15:13:45.835Z,4.93
2023-04-01T15:17:14.329Z,3.05
2023-04-01T15:21:05.752Z,3.38
2023-04-01T15:24:25.167Z,3.50
2023-04-01T15:27:46.687Z,4.10
2023-04-01T15:31:05.837Z,3.80
2023-04-01T15:34:31.440Z,4.00
2023-04-01T15:37:50.516Z,3.98
2023-04-01T15:41:13.326Z,3.88
2023-04-01T15:44:52.332Z,3.80
2023-04-01T15:48:11.167Z,3.50
2023-04-01T15:51:49.316Z,3.40
2023-04-01T15:55:32.532Z,3.55
2023-04-01T15:58:56.209Z,2.55
2023-04-01T16:02:16.651Z,2.93
2023-04-01T16:05:42.485Z,2.53
2023-04-01T16:09:18.918Z,2.88
2023-04-01T16:12:46.250Z,3.25
2023-04-01T16:16:05.701Z,3.23
2023-04-01T16:19:50.191Z,3.23
2023-04-01T16:23:08.426Z,3.53
2023-04-01T16:26:28.096Z,3.95
2023-04-01T16:29:49.303Z,5.18
2023-04-01T16:33:06.778Z,4.95
2023-04-01T16:36:28.061Z,5.58
2023-04-01T16:39:47.650Z,3.63
2023-04-01T16:43:06.003Z,4.33
2023-04-01T16:46:43.403Z,4.30
2023-04-01T16:50:02.076Z,5.08
2023-04-01T16:53:22.712Z,4.80
2023-04-01T16:56:43.913Z,4.85
2023-04-01T17:00:06.548Z,5.20
2023-04-01T17:03:26.391Z,5.38
2023-04-01T17:06:45.417Z,5.30
2023-04-01T17:10:33.584Z,5.40
2023-04-01T17:13:55.980Z,4.70
2023-04-01T17:17:23.195Z,4.48
2023-04-01T17:24:08.164Z,3.03
2023-04-01T17:27:35.061Z,2.95
2023-04-01T17:30:52.371Z,3.80
2023-04-01T17:34:32.253Z,4.30
2023-04-01T17:37:55.778Z,4.20
2023-04-01T17:41:14.540Z,5.38
2023-04-01T17:44:39.344Z,4.13
2023-04-01T17:48:04.790Z,3.83
2023-04-01T17:51:36.730Z,4.50
2023-04-01T17:54:55.106Z,4.13
2023-04-01T17:58:13.754Z,4.70
2023-04-01T18:01:46.483Z,4.08
2023-04-01T18:05:44.224Z,4.88
2023-04-01T18:09:10.826Z,4.93
2023-04-01T18:12:30.260Z,4.28
2023-04-01T18:15:48.628Z,5.45
2023-04-01T18:19:07.915Z,5.65
2023-04-01T18:22:26.899Z,5.43
2023-04-01T18:25:43.727Z,5.43
2023-04-01T18:29:01.919Z,6.25
2023-04-01T18:32:41.513Z,6.70
2023-04-01T18:36:00.353Z,5.83
2023-04-01T18:39:20.972Z,6.43
2023-04-01T18:42:42.790Z,6.73
2023-04-01T18:46:03.225Z,7.18
2023-04-01T18:49:29.565Z,8.23
2023-04-01T18:52:46.025Z,8.55
2023-04-01T18:56:01.925Z,8.98
2023-04-01T18:59:20.453Z,8.70
2023-04-01T19:02:40.893Z,8.33
2023-04-01T19:05:56.268Z,9.83
2023-04-01T19:09:26.209Z,9.30
2023-04-01T19:12:46.115Z,8.60
2023-04-01T19:16:05.748Z,8.95
2023-04-01T19:19:40.277Z,9.13
2023-04-01T19:23:07.635Z,8.83
2023-04-01T19:26:26.703Z,9.50
2023-04-01T19:29:53.047Z,8.78
2023-04-01T19:33:13.982Z,9.03
2023-04-01T19:36:32.845Z,8.78
2023-04-01T19:39:57.163Z,9.13
2023-04-01T19:43:17.200Z,9.80
2023-04-01T19:46:37.339Z,9.73
2023-04-01T19:50:01.838Z,9.00
2023-04-01T19:53:26.407Z,9.45
2023-04-01T19:59:46.237Z,10.40
2023-04-01T20:03:18.919Z,10.70
2023-04-01T20:06:40.139Z,11.58
2023-04-01T20:10:04.649Z,11.53
2023-04-01T20:13:25.420Z,10.30
2023-04-01T20:17:01.896Z,11.45
2023-04-01T20:20:27.200Z,11.13
2023-04-01T20:23:54.529Z,11.68
2023-04-01T20:27:16.451Z,11.78
2023-04-01T20:31:18.130Z,11.55
2023-04-01T20:34:52.610Z,12.70
2023-04-01T20:38:25.468Z,13.68
2023-04-01T20:41:45.628Z,13.75
2023-04-01T20:45:07.814Z,13.50
2023-04-01T20:48:54.422Z,14.13
2023-04-01T20:52:17.945Z,15.15
2023-04-01T20:56:27.332Z,14.03
2023-04-01T21:00:06.029Z,14.88
2023-04-01T21:03:34.602Z,17.05
2023-04-01T21:07:05.961Z,15.20
2023-04-01T21:10:42.608Z,16.23
2023-04-01T21:14:11.051Z,15.53
2023-04-01T21:17:31.037Z,14.88
2023-04-01T21:21:25.094Z,16.95
2023-04-01T21:25:14.954Z,17.30
2023-04-01T21:28:41.445Z,17.08
2023-04-01T21:32:25.282Z,16.80
2023-04-01T21:35:44.580Z,16.00
2023-04-01T21:39:10.360Z,16.68
2023-04-01T21:42:41.513Z,17.25
2023-04-01T21:46:25.347Z,17.45
2023-04-01T21:50:22.998Z,15.90
2023-04-01T21:54:10.247Z,15.20
2023-04-01T21:57:51.539Z,15.73
2023-04-01T22:01:15.580Z,15.20
2023-04-01T22:04:48.938Z,16.33
2023-04-01T22:08:08.645Z,16.20
2023-04-01T22:11:33.467Z,13.88
2023-04-01T22:14:51.762Z,14.28
2023-04-01T22:18:10.628Z,15.23
2023-04-01T22:21:28.397Z,14.88
2023-04-01T22:24:52.191Z,15.60
2023-04-01T22:28:09.771Z,15.80
2023-04-01T22:31:27.561Z,15.73
2023-04-01T22:34:46.587Z,14.95
2023-04-01T22:38:06.713Z,14.83
2023-04-01T22:41:24.632Z,14.75
2023-04-01T22:44:48.717Z,15.65
2023-04-01T22:48:07.293Z,15.50
2023-04-01T22:51:26.349Z,15.13
2023-04-01T22:54:43.421Z,15.00
2023-04-01T22:57:59.882Z,14.80
2023-04-01T23:01:18.015Z,16.15
2023-04-01T23:04:38.208Z,16.80
2023-04-01T23:07:59.051Z,14.70
2023-04-01T23:11:14.814Z,14.18
2023-04-01T23:14:57.025Z,15.03
2023-04-01T23:18:18.288Z,14.13
2023-04-01T23:21:37.626Z,15.08
2023-04-01T23:24:54.346Z,16.55
2023-04-01T23:28:16.042Z,15.35
2023-04-01T23:31:44.637Z,15.30
2023-04-01T23:34:59.793Z,14.75
2023-04-01T23:38:12.349Z,14.48
2023-04-01T23:41:34.243Z,15.38
2023-04-01T23:44:47.285Z,16.73
2023-04-01T23:48:01.058Z,16.50
2023-04-01T23:51:22.651Z,14.25
2023-04-01T23:54:46.789Z,15.03
2023-04-01T23:58:21.491Z,15.98
